Time;durP1;ratioP1;P1;durP2;ratioP2;P2;SDS_P1;SDS_P2;PMS_P1;PMS_P2;Temp;Humidity;BMP_temperature;BMP_pressure;BME280_temperature;BME280_humidity;BME280_pressure;Samples;Min_cycle;Max_cycle;Signal;HPM_P1;HPM_P2
2022/11/25 00:00:28;;;;;;;26.83;12.43;;;5.50;99.90;;;3.23;98.81;100027.41;10596370;27;20400;-81
2022/11/25 00:05:30;;;;;;;27.07;12.77;;;5.50;99.90;;;3.16;98.52;100027.06;10606577;27;20083;-80
2022/11/25 00:10:34;;;;;;;28.77;13.47;;;5.40;99.90;;;3.11;98.61;100023.97;10608558;27;20083;-80
2022/11/25 00:15:37;;;;;;;27.57;13.37;;;5.40;99.90;;;3.05;98.77;100029.72;10590767;27;20063;-80
2022/11/25 00:20:39;;;;;;;25.40;12.10;;;5.30;99.90;;;2.95;98.99;100034.91;10614974;27;20060;-80
2022/11/25 00:25:42;;;;;;;20.77;10.43;;;5.20;99.90;;;2.87;99.25;100039.91;10611382;27;20108;-80
2022/11/25 00:30:46;;;;;;;28.97;13.27;;;5.10;99.90;;;2.84;100.00;100036.72;10604418;27;20056;-80
2022/11/25 00:35:49;;;;;;;28.07;13.20;;;5.10;99.90;;;2.83;100.00;100053.44;10574145;27;20055;-80
2022/11/25 00:44:34;;;;;;;30.27;13.63;;;5.10;99.90;;;2.82;100.00;100057.84;10603594;27;20063;-80
2022/11/25 00:46:15;;;;;;;26.73;12.50;;;5.10;99.90;;;2.81;100.00;100061.41;10591486;27;20062;-81
2022/11/25 00:51:18;;;;;;;29.70;13.30;;;5.00;99.90;;;2.80;100.00;100064.97;10583486;27;20067;-81
2022/11/25 00:56:22;;;;;;;27.60;12.23;;;5.00;99.90;;;2.79;100.00;100065.94;10624257;27;20052;-80
2022/11/25 01:01:26;;;;;;;24.20;12.67;;;5.00;99.90;;;2.80;100.00;100064.16;10608636;27;20059;-80
2022/11/25 01:06:30;;;;;;;27.53;12.13;;;5.10;99.90;;;2.82;100.00;100070.09;10577209;27;20064;-80
2022/11/25 01:11:33;;;;;;;29.80;12.53;;;5.10;99.90;;;2.84;100.00;100070.84;10572318;27;20055;-80
2022/11/25 01:16:36;;;;;;;24.33;12.13;;;5.10;99.90;;;2.93;100.00;100070.91;10571826;27;20143;-80
2022/11/25 01:21:40;;;;;;;23.60;10.93;;;5.10;99.90;;;3.05;99.45;100087.50;10602002;27;20059;-80
2022/11/25 01:26:44;;;;;;;28.27;11.17;;;5.20;99.90;;;3.09;98.48;100094.16;10593453;27;20063;-81
2022/11/25 01:31:47;;;;;;;25.53;11.93;;;5.30;99.90;;;2.94;97.97;100101.50;10598816;27;20062;-81
2022/11/25 01:36:50;;;;;;;23.77;11.57;;;5.20;99.90;;;2.75;98.09;100108.28;10585591;27;20154;-81
2022/11/25 01:41:53;;;;;;;24.20;12.60;;;5.10;99.90;;;2.57;98.82;100110.56;10596585;27;20063;-81
2022/11/25 01:47:22;;;;;;;26.00;12.07;;;4.90;99.90;;;2.35;99.12;100114.84;10585224;27;20082;-81
2022/11/25 01:52:35;;;;;;;25.53;12.57;;;4.70;99.90;;;2.18;99.74;100104.81;10590340;27;20095;-81
2022/11/25 01:57:43;;;;;;;22.70;11.03;;;4.50;99.90;;;1.98;100.00;100108.06;10580177;27;20056;-81
2022/11/25 02:02:48;;;;;;;27.47;12.27;;;4.40;99.90;;;1.78;100.00;100101.72;10573438;27;20055;-81
2022/11/25 02:07:52;;;;;;;26.87;12.87;;;4.20;99.90;;;1.74;100.00;100101.13;10585573;27;20138;-81
2022/11/25 02:12:57;;;;;;;27.87;12.53;;;4.10;99.90;;;1.69;100.00;100108.47;10540110;27;20059;-81
2022/11/25 02:18:01;;;;;;;24.80;11.70;;;4.10;99.90;;;1.60;100.00;100104.75;10596564;27;20088;-81
2022/11/25 02:23:09;;;;;;;25.30;12.03;;;4.00;99.90;;;1.57;100.00;100104.97;10588667;27;20056;-81
2022/11/25 02:28:17;;;;;;;29.97;12.47;;;4.00;99.90;;;1.63;100.00;100106.31;10584749;27;20064;-81
2022/11/25 02:33:21;;;;;;;28.20;12.23;;;4.00;99.90;;;1.73;100.00;100104.66;10584429;27;20121;-81
2022/11/25 02:38:59;;;;;;;21.17;10.97;;;4.00;99.90;;;1.80;100.00;100111.16;10594858;27;20059;-81
2022/11/25 02:44:03;;;;;;;21.67;10.17;;;4.10;99.90;;;1.89;100.00;100109.63;10605097;27;20514;-81
2022/11/25 02:49:06;;;;;;;24.30;11.27;;;4.20;99.90;;;1.95;100.00;100118.81;10604205;27;20570;-81
2022/11/25 02:54:15;;;;;;;24.63;11.93;;;4.30;99.90;;;2.04;100.00;100113.72;10630420;27;20085;-80
2022/11/25 02:59:18;;;;;;;27.13;11.73;;;4.30;99.90;;;2.10;100.00;100107.19;10589444;27;20047;-81
2022/11/25 03:04:21;;;;;;;23.10;10.43;;;4.40;99.90;;;2.12;100.00;100113.13;10613346;27;20055;-81
2022/11/25 03:09:24;;;;;;;23.77;10.27;;;4.40;99.90;;;2.06;100.00;100135.41;10571397;27;20067;-81
2022/11/25 03:14:27;;;;;;;24.53;11.47;;;4.40;99.90;;;1.95;100.00;100140.59;10609776;27;20117;-81
2022/11/25 03:19:30;;;;;;;22.93;10.10;;;4.40;99.90;;;1.79;100.00;100130.41;10602901;27;20060;-81
2022/11/25 03:24:33;;;;;;;20.33;9.20;;;4.20;99.90;;;1.61;100.00;100155.34;10577160;28;20063;-81
2022/11/25 03:29:36;;;;;;;20.33;9.43;;;4.10;99.90;;;1.51;100.00;100170.06;10606224;27;20058;-81
2022/11/25 03:34:39;;;;;;;19.30;8.40;;;3.90;99.90;;;1.46;100.00;100170.41;10597127;27;20055;-81
2022/11/25 03:39:42;;;;;;;22.27;9.13;;;3.90;99.90;;;1.51;100.00;100183.16;10645411;27;20066;-80
2022/11/25 03:44:45;;;;;;;22.73;9.27;;;3.90;99.90;;;1.45;100.00;100183.59;10612544;27;20094;-81
2022/11/25 03:49:48;;;;;;;19.70;7.80;;;3.90;99.90;;;1.36;100.00;100184.25;10594144;27;20052;-81
2022/11/25 03:54:51;;;;;;;19.10;9.33;;;3.80;99.90;;;1.23;100.00;100176.44;10582990;27;20081;-80
2022/11/25 03:59:54;;;;;;;25.70;10.60;;;3.70;99.90;;;1.12;100.00;100195.50;10595149;27;20063;-80
2022/11/25 04:04:57;;;;;;;28.13;12.03;;;3.60;99.90;;;1.07;100.00;100190.59;10576129;27;20063;-81
2022/11/25 04:10:00;;;;;;;25.03;10.90;;;3.50;99.90;;;1.02;100.00;100202.31;10569620;27;20055;-80
2022/11/25 04:15:04;;;;;;;23.40;10.73;;;3.40;99.90;;;0.94;100.00;100209.88;10580610;27;20067;-80
2022/11/25 04:20:08;;;;;;;24.60;11.37;;;3.40;99.90;;;0.92;100.00;100206.53;10576342;27;20400;-81
2022/11/25 04:25:11;;;;;;;20.03;9.33;;;3.30;99.90;;;0.97;100.00;100207.06;10594756;27;20059;-81
2022/11/25 04:30:14;;;;;;;23.97;9.70;;;3.30;99.90;;;1.04;100.00;100209.13;10631501;27;20087;-80
2022/11/25 04:35:17;;;;;;;20.73;10.23;;;3.40;99.90;;;1.03;100.00;100238.88;10586520;28;20052;-80
2022/11/25 04:40:20;;;;;;;19.80;8.90;;;3.40;99.90;;;0.93;100.00;100234.38;10623484;27;20060;-80
2022/11/25 04:45:23;;;;;;;20.00;8.27;;;3.40;99.90;;;0.77;100.00;100235.41;10593231;27;20055;-81
2022/11/25 04:50:26;;;;;;;24.33;8.80;;;3.20;99.90;;;0.64;100.00;100239.81;10624887;27;20453;-81
2022/11/25 04:55:29;;;;;;;20.87;9.30;;;3.10;99.90;;;0.53;100.00;100237.06;10554731;27;20109;-81
2022/11/25 05:00:33;;;;;;;22.10;10.13;;;3.00;99.90;;;0.47;100.00;100242.69;10623855;27;20090;-81
2022/11/25 05:05:38;;;;;;;17.77;8.50;;;2.90;99.90;;;0.33;100.00;100259.31;10613617;27;20423;-82
2022/11/25 05:10:41;;;;;;;21.40;8.20;;;2.80;99.90;;;0.16;100.00;100259.56;10592550;27;20499;-82
2022/11/25 05:15:44;;;;;;;23.53;9.43;;;2.70;99.90;;;0.07;100.00;100281.94;10591849;27;20448;-81
2022/11/25 05:20:46;;;;;;;24.87;10.30;;;2.60;99.90;;;0.07;100.00;100291.56;10573166;27;20435;-82
2022/11/25 05:25:49;;;;;;;25.70;11.40;;;2.50;99.90;;;0.05;100.00;100298.63;10600894;27;20066;-82
2022/11/25 05:30:52;;;;;;;31.17;12.83;;;2.50;99.90;;;0.05;100.00;100298.63;10607773;27;20059;-82
2022/11/25 05:35:58;;;;;;;33.90;12.00;;;2.50;99.90;;;-0.06;100.00;100297.56;10580648;27;20056;-82
2022/11/25 05:41:04;;;;;;;27.80;12.80;;;2.50;99.90;;;-0.16;100.00;100308.69;10591617;27;20059;-82
2022/11/25 05:46:08;;;;;;;34.07;13.03;;;2.40;99.90;;;-0.28;100.00;100325.97;10591419;27;20063;-82
2022/11/25 05:51:11;;;;;;;28.87;10.70;;;2.30;99.90;;;-0.43;100.00;100325.13;10589993;27;20124;-82
2022/11/25 05:56:14;;;;;;;53.77;18.37;;;2.10;99.90;;;-0.51;100.00;100324.75;10608521;27;20123;-82
2022/11/25 06:01:32;;;;;;;37.03;14.63;;;2.00;99.90;;;-0.59;100.00;100329.63;10609137;27;20056;-82
2022/11/25 06:06:35;;;;;;;28.20;11.03;;;2.00;99.90;;;-0.68;100.00;100338.00;10592575;27;20052;-82
2022/11/25 06:11:38;;;;;;;20.57;9.33;;;1.90;99.90;;;-0.75;100.00;100347.13;10610377;27;20502;-82
2022/11/25 06:16:41;;;;;;;26.07;8.37;;;1.80;99.90;;;-0.83;100.00;100355.44;10620290;27;20064;-81
2022/11/25 06:21:44;;;;;;;26.90;12.37;;;1.70;99.90;;;-0.76;100.00;100369.78;10563873;27;20083;-82
2022/11/25 06:26:47;;;;;;;57.10;20.20;;;1.80;99.90;;;-0.63;100.00;100375.09;10590908;27;20059;-84
2022/11/25 06:31:50;;;;;;;45.77;18.27;;;1.80;99.90;;;-0.48;100.00;100374.19;10602913;27;20064;-82
2022/11/25 06:36:53;;;;;;;53.30;18.83;;;2.00;99.90;;;-0.24;100.00;100373.59;10579247;27;20056;-82
2022/11/25 06:41:56;;;;;;;43.90;18.60;;;2.20;99.90;;;0.47;100.00;100378.66;10557110;28;20147;-82
2022/11/25 06:46:59;;;;;;;40.87;17.57;;;2.40;99.90;;;1.16;100.00;100382.81;10586278;27;20056;-82
2022/11/25 06:52:02;;;;;;;41.67;19.97;;;2.70;99.90;;;1.62;100.00;100384.94;10594799;27;20052;-82
2022/11/25 06:57:04;;;;;;;46.30;21.67;;;3.10;99.90;;;2.02;100.00;100384.75;10565940;27;20533;-82
2022/11/25 07:02:11;;;;;;;37.60;20.20;;;3.50;99.90;;;2.44;100.00;100396.56;10619609;27;20066;-83
2022/11/25 07:07:14;;;;;;;39.10;21.87;;;3.90;99.90;;;2.76;100.00;100386.34;10579677;27;20507;-83
2022/11/25 07:12:17;;;;;;;23.20;12.77;;;4.30;99.90;;;3.04;100.00;100405.28;10555587;28;20052;-83
2022/11/25 07:17:20;;;;;;;23.97;12.50;;;4.60;99.90;;;3.19;100.00;100406.78;10597083;27;20109;-82
2022/11/25 07:22:23;;;;;;;22.10;11.23;;;4.90;99.90;;;3.45;100.00;100405.63;10612691;27;20060;-82
2022/11/25 07:27:27;;;;;;;68.47;28.37;;;5.10;99.90;;;3.97;100.00;100406.84;10574576;28;20091;-82
2022/11/25 07:32:32;;;;;;;23.00;10.53;;;5.40;99.90;;;4.39;100.00;100411.47;10571365;28;20396;-82
2022/11/25 07:37:36;;;;;;;24.57;10.80;;;5.80;99.90;;;4.74;100.00;100413.88;10626078;27;20060;-82
2022/11/25 07:42:39;;;;;;;28.77;11.70;;;6.10;99.90;;;5.07;100.00;100410.25;10597604;27;20063;-83
2022/11/25 07:47:41;;;;;;;19.93;10.07;;;6.40;99.90;;;5.34;100.00;100402.69;10587152;27;20056;-83
2022/11/25 07:52:44;;;;;;;20.40;10.30;;;6.80;99.90;;;5.75;100.00;100408.84;10571627;28;20060;-82
2022/11/25 07:57:47;;;;;;;19.93;9.47;;;7.30;99.90;;;6.25;98.46;100413.41;10596610;27;20067;-82
2022/11/25 08:02:51;;;;;;;18.10;8.97;;;7.80;99.90;;;6.78;97.05;100411.28;10595152;27;20055;-83
2022/11/25 08:07:55;;;;;;;23.20;12.07;;;8.30;99.90;;;7.30;94.92;100417.06;10596893;27;20109;-83
2022/11/25 08:12:57;;;;;;;20.47;11.63;;;8.80;99.90;;;7.70;92.40;100414.22;10629400;27;20154;-83
2022/11/25 08:18:01;;;;;;;21.73;11.57;;;9.10;99.90;;;7.99;89.19;100423.84;10581916;27;20056;-83
2022/11/25 08:23:03;;;;;;;20.10;11.37;;;9.40;99.90;;;8.16;85.68;100420.44;10560250;27;20125;-81
2022/11/25 08:28:07;;;;;;;24.47;13.03;;;9.60;99.90;;;8.32;84.27;100425.91;10553512;27;20529;-81
2022/11/25 08:33:10;;;;;;;21.37;12.70;;;9.70;99.90;;;8.62;82.57;100418.66;10614339;27;20114;-81
2022/11/25 08:38:14;;;;;;;21.13;12.60;;;10.10;99.90;;;8.77;80.69;100422.47;10574198;27;20094;-81
2022/11/25 08:43:18;;;;;;;21.93;11.90;;;10.40;99.90;;;8.99;79.12;100417.69;10572050;27;20494;-81
2022/11/25 08:48:26;;;;;;;20.27;11.83;;;10.70;99.90;;;8.91;77.02;100420.28;10588028;27;20064;-82
2022/11/25 08:53:29;;;;;;;22.53;11.87;;;10.80;99.90;;;8.31;76.31;100424.25;10608618;27;20067;-83
2022/11/25 08:58:34;;;;;;;24.47;12.00;;;10.40;99.90;;;7.77;76.00;100422.41;10609948;27;20067;-83
2022/11/25 09:03:42;;;;;;;25.83;12.00;;;10.00;99.90;;;7.91;77.46;100415.78;10609904;27;20066;-83
2022/11/25 09:08:45;;;;;;;20.50;11.00;;;10.20;99.90;;;8.37;76.84;100416.72;10582709;27;20059;-83
2022/11/25 09:13:49;;;;;;;19.45;10.50;;;10.70;99.90;;;9.01;77.87;100419.22;10629779;27;20067;-83
2022/11/25 09:18:52;;;;;;;16.48;9.52;;;11.30;99.90;;;9.61;76.39;100413.19;10568403;28;20411;-83
2022/11/25 09:23:58;;;;;;;19.33;10.63;;;12.00;99.90;;;10.10;74.28;100416.09;10596043;27;20087;-82
2022/11/25 09:29:02;;;;;;;16.40;9.13;;;12.70;99.90;;;10.57;73.25;100410.31;10570231;27;20055;-82
2022/11/25 09:34:06;;;;;;;17.02;8.60;;;13.20;99.90;;;10.95;71.30;100415.03;10623972;27;20068;-82
2022/11/25 09:39:10;;;;;;;16.70;10.10;;;13.70;99.90;;;11.07;69.71;100412.88;10641505;27;20059;-82
2022/11/25 09:50:43;;;;;;;13.47;7.17;;;13.20;99.90;;;10.02;68.61;100400.16;10576213;27;20060;-81
2022/11/25 09:55:50;;;;;;;13.53;7.63;;;12.70;99.90;;;9.36;69.38;100407.72;10613058;27;20106;-81
2022/11/25 10:00:53;;;;;;;16.40;7.97;;;12.00;99.90;;;8.77;69.42;100409.22;10578531;27;20059;-81
2022/11/25 10:06:25;;;;;;;15.40;7.60;;;11.40;99.90;;;8.24;70.75;100399.34;10599240;27;20051;-81
2022/11/25 10:11:49;;;;;;;18.02;8.68;;;10.90;99.90;;;7.87;72.46;100395.91;10594619;27;20059;-82
2022/11/25 10:17:29;;;;;;;13.90;7.37;;;10.40;99.90;;;7.60;74.10;100400.16;10588127;27;20052;-82
2022/11/25 10:22:54;;;;;;;15.50;7.53;;;10.10;99.90;;;7.42;75.21;100399.25;10601110;27;20076;-82
2022/11/25 10:28:09;;;;;;;15.63;7.97;;;9.80;99.90;;;7.33;76.13;100400.09;10589548;27;20059;-82
2022/11/25 10:33:23;;;;;;;13.33;8.17;;;9.70;99.90;;;7.57;77.66;100397.81;10593297;27;20426;-82
2022/11/25 10:38:58;;;;;;;13.73;7.43;;;10.10;99.90;;;8.49;77.94;100395.19;10626603;27;20458;-82
2022/11/25 10:44:01;;;;;;;16.95;8.20;;;11.10;99.90;;;9.40;76.06;100400.28;10638177;27;20498;-82
2022/11/25 10:49:48;;;;;;;15.55;8.68;;;12.20;99.90;;;9.92;74.25;100397.59;10605981;27;20194;-82
2022/11/25 10:55:14;;;;;;;13.00;7.68;;;12.70;99.90;;;10.51;73.32;100389.72;10586935;27;20507;-82
2022/11/25 11:00:32;;;;;;;16.38;9.70;;;13.40;99.90;;;10.78;71.50;100393.91;10598320;27;20067;-82
2022/11/25 11:05:48;;;;;;;15.50;8.13;;;13.50;99.90;;;10.57;70.14;100389.91;10595843;27;20089;-82
2022/11/25 11:11:18;;;;;;;15.97;8.93;;;13.20;99.90;;;10.13;70.38;100391.88;10588247;27;20079;-82
2022/11/25 11:16:36;;;;;;;16.20;8.50;;;12.60;99.90;;;9.75;71.04;100391.38;10617578;27;20063;-82
2022/11/25 11:21:41;;;;;;;13.93;7.87;;;12.20;99.90;;;9.43;72.23;100399.16;10630349;27;20091;-82
2022/11/25 11:26:44;;;;;;;14.30;7.83;;;11.80;99.90;;;9.18;72.99;100404.28;10596007;27;20064;-82
2022/11/25 11:32:00;;;;;;;15.80;8.70;;;11.60;99.90;;;9.00;74.06;100406.94;10589519;27;20055;-82
2022/11/25 11:37:18;;;;;;;14.67;8.50;;;11.30;99.90;;;8.78;74.21;100407.41;10558087;27;20063;-82
2022/11/25 11:43:07;;;;;;;8.47;5.20;;;11.10;99.90;;;8.61;74.29;100400.28;10613279;27;20060;-81
2022/11/25 11:48:51;;;;;;;7.97;4.50;;;10.90;99.90;;;8.48;74.15;100403.28;10647071;27;20059;-81
2022/11/25 11:54:13;;;;;;;8.13;4.47;;;10.80;99.90;;;8.46;75.33;100399.97;10646357;27;20082;-82
2022/11/25 11:59:34;;;;;;;9.05;4.68;;;10.70;99.90;;;8.44;75.48;100407.22;10601198;27;20487;-82
2022/11/25 12:04:53;;;;;;;9.30;4.70;;;10.60;99.90;;;8.32;75.73;100399.44;10622129;27;20412;-82
2022/11/25 12:10:10;;;;;;;6.83;4.27;;;10.60;99.90;;;8.17;75.86;100395.63;10592328;27;20081;-82
2022/11/25 12:16:14;;;;;;;9.47;5.27;;;10.40;99.90;;;8.11;77.10;100396.22;10584298;27;20063;-83
2022/11/25 12:21:35;;;;;;;9.10;4.30;;;10.30;99.90;;;8.16;77.75;100406.38;10602836;27;20601;-82
2022/11/25 12:26:49;;;;;;;6.60;3.47;;;10.30;99.90;;;8.20;77.36;100402.44;10595489;27;20059;-82
2022/11/25 12:32:12;;;;;;;7.73;3.93;;;10.40;99.90;;;8.17;76.97;100398.28;10582926;27;20070;-82
2022/11/25 12:37:30;;;;;;;5.53;2.73;;;10.40;99.90;;;8.14;77.32;100389.78;10596423;27;20094;-83
2022/11/25 12:42:39;;;;;;;6.37;3.47;;;10.40;99.90;;;8.07;77.19;100392.19;10617410;27;20087;-83
2022/11/25 12:47:43;;;;;;;6.47;3.20;;;10.30;99.90;;;8.06;77.45;100387.88;10564170;27;20068;-83
2022/11/25 12:53:25;;;;;;;7.60;3.27;;;10.30;99.90;;;8.03;77.75;100393.44;10597082;27;20056;-83
2022/11/25 12:58:28;;;;;;;6.88;3.20;;;10.30;99.90;;;8.02;77.62;100392.63;10577068;27;20127;-83
2022/11/25 13:04:13;;;;;;;7.07;4.10;;;10.30;99.90;;;7.97;78.05;100386.09;10587194;27;20056;-82
2022/11/25 13:10:04;;;;;;;10.73;4.53;;;10.30;99.90;;;7.96;78.29;100392.38;10563969;27;20051;-82
2022/11/25 13:15:23;;;;;;;9.93;4.90;;;10.20;99.90;;;7.87;78.40;100394.09;10501686;27;20150;-83
2022/11/25 13:20:26;;;;;;;7.90;4.20;;;10.20;99.90;;;7.83;79.00;100403.31;10579921;27;20066;-83
2022/11/25 13:25:30;;;;;;;9.20;4.80;;;10.10;99.90;;;7.81;79.12;100401.78;10630505;27;20048;-83
2022/11/25 13:30:35;;;;;;;14.40;8.90;;;10.10;99.90;;;7.77;79.62;100393.28;10579512;27;20059;-83
2022/11/25 13:35:58;;;;;;;11.10;6.50;;;10.00;99.90;;;7.70;79.75;100405.44;10603564;27;20593;-82
2022/11/25 13:41:08;;;;;;;11.13;5.97;;;10.00;99.90;;;7.61;80.19;100414.22;10592274;27;20533;-83
2022/11/25 13:46:43;;;;;;;10.13;5.97;;;9.90;99.90;;;7.56;80.74;100419.97;10625007;27;20056;-83
2022/11/25 13:52:11;;;;;;;16.37;7.23;;;9.90;99.90;;;7.50;80.92;100429.31;10614210;27;20511;-86
2022/11/25 13:57:29;;;;;;;11.73;5.63;;;9.90;99.90;;;7.46;81.07;100440.28;10540736;27;20060;-84
2022/11/25 14:02:40;;;;;;;13.10;6.90;;;9.80;99.90;;;7.39;81.60;100437.38;10577930;27;20156;-84
2022/11/25 14:08:49;;;;;;;12.68;7.50;;;9.70;99.90;;;7.34;81.79;100447.53;10603679;27;20150;-84
2022/11/25 14:14:25;;;;;;;17.37;7.17;;;9.60;99.90;;;7.27;82.08;100451.72;10605812;27;20048;-83
2022/11/25 14:20:05;;;;;;;15.80;7.83;;;9.60;99.90;;;7.14;82.57;100459.94;10584656;27;20059;-88
2022/11/25 14:25:53;;;;;;;22.10;9.17;;;9.50;99.90;;;6.94;83.21;100448.53;10622533;27;20552;-84
2022/11/25 14:31:03;;;;;;;20.53;10.43;;;9.30;99.90;;;6.70;83.97;100456.84;10583067;27;20052;-82
2022/11/25 14:36:18;;;;;;;24.83;11.73;;;9.10;99.90;;;6.52;84.71;100453.19;10597450;27;20105;-81
2022/11/25 14:41:30;;;;;;;43.33;18.50;;;8.90;99.90;;;6.31;85.80;100455.09;10611365;27;20400;-81
2022/11/25 14:46:33;;;;;;;21.40;12.17;;;8.70;99.90;;;6.10;86.42;100455.97;10615965;27;20059;-81
2022/11/25 14:51:37;;;;;;;19.77;10.47;;;8.50;99.90;;;5.94;87.14;100457.41;10589926;27;20063;-81
2022/11/25 14:56:40;;;;;;;19.67;10.57;;;8.30;99.90;;;5.78;88.26;100465.78;10579423;27;20503;-81
2022/11/25 15:01:53;;;;;;;23.37;13.03;;;8.10;99.90;;;5.61;88.84;100478.59;10612673;27;20117;-81
2022/11/25 15:06:59;;;;;;;24.30;13.27;;;8.00;99.90;;;5.46;89.88;100477.25;10600472;27;20091;-82
2022/11/25 15:12:16;;;;;;;22.90;10.63;;;7.80;99.90;;;5.26;90.00;100478.06;10611953;27;20071;-82
2022/11/25 15:17:36;;;;;;;20.40;10.67;;;7.60;99.90;;;5.07;90.79;100486.66;10597384;27;20100;-82
2022/11/25 15:22:46;;;;;;;17.10;8.43;;;7.50;99.90;;;4.91;91.19;100489.69;10589830;27;20059;-82
2022/11/25 15:27:51;;;;;;;22.80;11.37;;;7.30;99.90;;;4.76;92.30;100497.03;10621894;27;20193;-83
2022/11/25 15:32:55;;;;;;;28.10;13.60;;;7.20;99.90;;;4.61;92.71;100503.50;10590946;27;20146;-82
2022/11/25 15:37:58;;;;;;;26.43;12.83;;;7.00;99.90;;;4.41;93.09;100517.41;10613919;27;20180;-82
2022/11/25 15:43:05;;;;;;;29.90;14.53;;;6.80;99.90;;;4.18;93.46;100508.69;10606655;27;20519;-82
2022/11/25 15:48:27;;;;;;;25.37;13.07;;;6.60;99.90;;;4.00;93.88;100514.41;10591691;27;20071;-82
2022/11/25 15:53:35;;;;;;;31.27;13.38;;;6.40;99.90;;;3.86;94.21;100519.06;10617518;27;20059;-83
2022/11/25 15:58:41;;;;;;;29.50;13.60;;;6.30;99.90;;;3.78;94.89;100524.06;10621459;27;20141;-83
2022/11/25 16:03:46;;;;;;;36.30;18.50;;;6.20;99.90;;;3.75;95.25;100522.50;10595587;27;20066;-83
2022/11/25 16:08:54;;;;;;;27.27;12.87;;;6.20;99.90;;;3.68;95.49;100530.03;10577814;27;20064;-83
2022/11/25 16:14:17;;;;;;;26.83;14.50;;;6.10;99.90;;;3.52;95.63;100523.41;10588261;27;20056;-83
2022/11/25 16:19:29;;;;;;;34.73;16.73;;;6.00;99.90;;;3.33;95.79;100545.78;10591500;27;20067;-83
2022/11/25 16:24:49;;;;;;;39.20;18.13;;;5.70;99.90;;;3.09;96.12;100542.31;10588031;27;20050;-83
2022/11/25 16:29:57;;;;;;;47.47;22.00;;;5.50;99.90;;;2.84;96.27;100548.50;10603211;27;20061;-81
2022/11/25 16:35:13;;;;;;;35.37;17.90;;;5.30;99.90;;;2.61;96.63;100552.75;10576477;27;20533;-81
2022/11/25 16:40:17;;;;;;;44.33;19.53;;;5.10;99.90;;;2.40;96.79;100570.84;10590961;27;20055;-81
2022/11/25 16:45:26;;;;;;;38.63;18.13;;;4.90;99.90;;;2.17;97.09;100569.81;10580039;27;20067;-81
2022/11/25 16:50:29;;;;;;;44.43;21.80;;;4.70;99.90;;;2.00;97.33;100578.81;10576182;28;20059;-80
2022/11/25 16:55:33;;;;;;;34.97;16.43;;;4.50;99.90;;;1.87;97.74;100594.53;10595332;27;20101;-83
2022/11/25 17:00:36;;;;;;;51.07;23.00;;;4.40;99.90;;;1.71;98.03;100583.38;10569360;28;20109;-81
2022/11/25 17:05:39;;;;;;;52.63;24.43;;;4.20;99.90;;;1.58;98.29;100593.00;10571110;27;20095;-82
2022/11/25 17:10:43;;;;;;;47.93;21.30;;;4.10;99.90;;;1.48;98.75;100605.00;10534419;28;20071;-80
2022/11/25 17:15:47;;;;;;;79.40;37.27;;;4.00;99.90;;;1.37;99.12;100602.25;10566745;28;20422;-80
2022/11/25 17:20:51;;;;;;;63.93;24.43;;;3.90;99.90;;;1.36;99.48;100608.44;10558899;28;20060;-80
2022/11/25 17:25:54;;;;;;;66.93;22.83;;;3.80;99.90;;;1.32;99.97;100606.03;10619384;27;20110;-80
2022/11/25 17:30:57;;;;;;;58.07;17.20;;;3.80;99.90;;;1.34;100.00;100614.59;10585087;28;20154;-80
2022/11/25 17:36:00;;;;;;;58.77;18.90;;;3.80;99.90;;;1.34;100.00;100617.22;10584803;28;20070;-81
2022/11/25 17:41:03;;;;;;;47.60;16.90;;;3.80;99.90;;;1.35;100.00;100602.34;10584629;28;20059;-80
2022/11/25 17:46:15;;;;;;;53.77;16.60;;;3.80;99.90;;;1.39;100.00;100614.31;10551861;28;20060;-80
2022/11/25 17:51:18;;;;;;;51.23;22.70;;;3.80;99.90;;;1.41;100.00;100619.44;10599886;27;20060;-81
2022/11/25 17:56:31;;;;;;;43.70;16.43;;;3.90;99.90;;;1.43;100.00;100631.50;10551178;28;20110;-80
2022/11/25 18:01:34;;;;;;;69.57;23.27;;;3.90;99.90;;;1.43;100.00;100633.28;10551870;28;20118;-80
2022/11/25 18:06:37;;;;;;;50.17;20.97;;;3.90;99.90;;;1.45;100.00;100640.13;10567154;28;20073;-80
2022/11/25 18:11:45;;;;;;;58.27;17.70;;;3.90;99.90;;;1.43;100.00;100641.13;10579332;28;20060;-79
2022/11/25 18:16:48;;;;;;;56.00;18.07;;;3.80;99.90;;;1.45;100.00;100655.00;10575075;27;20059;-79
2022/11/25 18:21:52;;;;;;;44.30;14.80;;;3.90;99.90;;;1.47;100.00;100664.41;10593655;27;20066;-79
2022/11/25 18:26:56;;;;;;;62.50;14.17;;;3.90;99.90;;;1.50;100.00;100661.63;10563384;28;20064;-84
2022/11/25 18:31:59;;;;;;;35.03;12.27;;;3.90;99.90;;;1.54;100.00;100662.25;10574747;27;20060;-82
2022/11/25 18:37:03;;;;;;;38.30;12.13;;;3.90;99.90;;;1.57;100.00;100670.75;10548912;28;20411;-80
2022/11/25 18:42:07;;;;;;;49.97;13.30;;;4.00;99.90;;;1.59;100.00;100683.75;10560780;28;20057;-80
2022/11/25 18:47:11;;;;;;;47.57;12.83;;;4.00;99.90;;;1.60;100.00;100680.19;10584097;27;20080;-81
2022/11/25 18:52:14;;;;;;;43.03;13.70;;;4.00;99.90;;;1.63;100.00;100682.63;10603218;27;20105;-79
2022/11/25 18:57:17;;;;;;;35.60;12.47;;;4.00;99.90;;;1.64;100.00;100684.28;10601318;27;20070;-80
2022/11/25 19:02:20;;;;;;;55.00;13.33;;;4.00;99.90;;;1.65;100.00;100677.28;10584762;27;20062;-80
2022/11/25 19:07:24;;;;;;;38.00;13.73;;;4.00;99.90;;;1.66;100.00;100695.50;10582641;27;20051;-80
2022/11/25 19:12:27;;;;;;;38.50;14.33;;;4.00;99.90;;;1.68;100.00;100701.50;10627436;27;20063;-80
2022/11/25 19:17:29;;;;;;;58.97;17.10;;;4.10;99.90;;;1.69;100.00;100700.56;10598124;27;20060;-80
2022/11/25 19:22:32;;;;;;;55.43;13.37;;;4.10;99.90;;;1.69;100.00;100705.78;10593386;27;20059;-80
2022/11/25 19:28:03;;;;;;;50.13;15.23;;;4.10;99.90;;;1.70;100.00;100710.09;10579922;27;20055;-80
2022/11/25 19:33:32;;;;;;;45.60;17.27;;;4.00;99.90;;;1.68;100.00;100725.09;10600661;27;20446;-80
2022/11/25 19:38:35;;;;;;;45.20;15.10;;;4.10;99.90;;;1.64;100.00;100723.59;10569830;27;20060;-80
2022/11/25 19:43:38;;;;;;;53.17;17.00;;;4.00;99.90;;;1.59;100.00;100726.50;10607290;27;20507;-80
2022/11/25 19:48:41;;;;;;;39.87;15.03;;;4.00;99.90;;;1.53;100.00;100731.28;10603164;27;20156;-80
2022/11/25 19:53:44;;;;;;;39.13;14.47;;;3.90;99.90;;;1.44;100.00;100737.97;10629222;27;20055;-80
2022/11/25 19:58:47;;;;;;;44.70;15.70;;;3.80;99.90;;;1.38;100.00;100743.56;10583609;27;20069;-80
2022/11/25 20:03:50;;;;;;;35.50;13.23;;;3.80;99.90;;;1.36;100.00;100745.44;10610443;27;20055;-79
2022/11/25 20:08:53;;;;;;;49.47;15.17;;;3.80;99.90;;;1.37;100.00;100756.75;10593180;27;20570;-79
2022/11/25 20:14:04;;;;;;;35.10;13.90;;;3.80;99.90;;;1.37;100.00;100751.50;10584772;27;20621;-79
2022/11/25 20:19:16;;;;;;;49.90;19.63;;;3.80;99.90;;;1.40;100.00;100761.81;10605345;27;20067;-79
2022/11/25 20:24:20;;;;;;;42.53;14.37;;;3.80;99.90;;;1.42;100.00;100755.53;10624030;27;20056;-79
2022/11/25 20:29:22;;;;;;;53.40;14.37;;;3.80;99.90;;;1.47;100.00;100765.72;10620154;27;20069;-80
2022/11/25 20:34:32;;;;;;;51.77;14.80;;;3.90;99.90;;;1.52;100.00;100776.75;10586470;27;20063;-80
2022/11/25 20:39:43;;;;;;;57.30;14.60;;;3.90;99.90;;;1.57;100.00;100790.41;10606790;27;20055;-80
2022/11/25 20:44:47;;;;;;;44.80;15.07;;;4.00;99.90;;;1.59;100.00;100794.59;10598818;27;20056;-80
2022/11/25 20:49:57;;;;;;;50.77;15.03;;;4.00;99.90;;;1.60;100.00;100798.06;10589109;27;20082;-80
2022/11/25 20:55:13;;;;;;;59.67;15.70;;;4.00;99.90;;;1.60;100.00;100795.44;10627653;27;20291;-80
2022/11/25 21:00:26;;;;;;;46.30;15.73;;;4.00;99.90;;;1.60;100.00;100791.03;10609314;27;20139;-80
2022/11/25 21:05:28;;;;;;;47.60;14.50;;;4.00;99.90;;;1.60;100.00;100790.19;10627397;27;20062;-81
2022/11/25 21:10:34;;;;;;;55.87;15.17;;;4.00;99.90;;;1.62;100.00;100790.97;10592357;27;20048;-80